createdAt,value
2019-05-01T00:00:25.703Z,83.50
2019-05-01T00:03:05.974Z,83.10
2019-05-01T00:05:38.412Z,83.30
2019-05-01T00:08:08.185Z,83.30
2019-05-01T00:13:24.512Z,83.10
2019-05-01T00:15:53.747Z,83.50
2019-05-01T00:18:27.997Z,84.20
2019-05-01T00:21:01.598Z,83.30
2019-05-01T00:23:35.850Z,83.30
2019-05-01T00:26:11.859Z,83.00
2019-05-01T00:28:41.061Z,83.20
2019-05-01T00:31:10.370Z,83.10
2019-05-01T00:33:42.522Z,82.70
2019-05-01T00:36:13.083Z,82.70
2019-05-01T00:38:44.102Z,82.40
2019-05-01T00:41:14.342Z,83.00
2019-05-01T00:43:43.697Z,83.10
2019-05-01T00:46:12.904Z,83.60
2019-05-01T00:48:43.765Z,83.60
2019-05-01T00:51:13.109Z,83.80
2019-05-01T00:53:42.324Z,83.50
2019-05-01T00:56:29.935Z,83.20
2019-05-01T00:59:26.573Z,83.10
2019-05-01T01:02:12.433Z,83.10
2019-05-01T01:04:44.598Z,83.00
2019-05-01T01:07:16.548Z,83.00
2019-05-01T01:09:48.760Z,82.70
2019-05-01T01:12:21.308Z,82.70
2019-05-01T01:14:52.163Z,82.70
2019-05-01T01:17:23.206Z,82.70
2019-05-01T01:19:52.513Z,82.70
2019-05-01T01:22:21.740Z,82.90
2019-05-01T01:24:53.894Z,82.90
2019-05-01T01:27:23.504Z,82.70
2019-05-01T01:29:52.742Z,82.70
2019-05-01T01:32:22.029Z,82.60
2019-05-01T01:34:52.313Z,82.70
2019-05-01T01:37:22.961Z,82.30
2019-05-01T01:39:52.242Z,83.00
2019-05-01T01:42:21.557Z,83.20
2019-05-01T01:45:08.293Z,83.40
2019-05-01T01:48:15.597Z,83.70
2019-05-01T01:50:44.829Z,83.90
2019-05-01T01:53:16.157Z,83.80
2019-05-01T01:55:46.656Z,83.70
2019-05-01T01:58:16.405Z,83.50
2019-05-01T02:01:09.629Z,83.50
2019-05-01T02:03:40.628Z,83.30
2019-05-01T02:06:09.874Z,83.30
2019-05-01T02:08:39.169Z,83.00
2019-05-01T02:11:10.032Z,83.60
2019-05-01T02:13:40.578Z,83.60
2019-05-01T02:16:09.834Z,83.20
2019-05-01T02:18:39.037Z,83.00
2019-05-01T02:21:11.293Z,83.00
2019-05-01T02:23:42.160Z,83.10
2019-05-01T02:26:13.016Z,83.20
2019-05-01T02:28:48.337Z,83.10
2019-05-01T02:31:36.514Z,82.70
2019-05-01T02:34:08.697Z,82.80
2019-05-01T02:36:41.867Z,82.60
2019-05-01T02:39:11.079Z,81.90
2019-05-01T02:41:44.427Z,82.50
2019-05-01T02:44:22.538Z,82.50
2019-05-01T02:46:53.594Z,82.30
2019-05-01T02:49:35.636Z,82.30
2019-05-01T02:52:07.818Z,82.70
2019-05-01T02:54:39.838Z,82.40
2019-05-01T02:57:13.657Z,82.00
2019-05-01T02:59:47.347Z,82.90
2019-05-01T03:02:16.625Z,83.10
2019-05-01T03:04:48.945Z,82.90
2019-05-01T03:07:20.485Z,83.00
2019-05-01T03:09:52.721Z,82.90
2019-05-01T03:12:22.389Z,82.80
2019-05-01T03:14:51.616Z,82.60
2019-05-01T03:17:38.816Z,82.90
2019-05-01T03:20:29.964Z,82.80
2019-05-01T03:23:30.457Z,83.00
2019-05-01T03:25:59.650Z,82.70
2019-05-01T03:28:28.861Z,83.00
2019-05-01T03:30:58.089Z,82.70
2019-05-01T03:33:27.415Z,82.70
2019-05-01T03:35:56.706Z,82.80
2019-05-01T03:38:25.966Z,82.80
2019-05-01T03:40:55.254Z,83.10
2019-05-01T03:43:27.828Z,83.00
2019-05-01T03:45:57.042Z,83.10
2019-05-01T03:48:26.381Z,83.10
2019-05-01T03:50:55.622Z,82.80
2019-05-01T03:53:24.883Z,83.00
2019-05-01T03:55:54.216Z,83.10
2019-05-01T03:58:25.585Z,83.60
2019-05-01T04:01:13.437Z,83.40
2019-05-01T04:03:54.741Z,83.30
2019-05-01T04:06:26.903Z,83.30
2019-05-01T04:08:56.107Z,83.10
2019-05-01T04:11:25.305Z,83.30
2019-05-01T04:13:54.527Z,83.70
2019-05-01T04:16:23.834Z,83.00
2019-05-01T04:18:53.038Z,83.30
2019-05-01T04:21:24.062Z,83.60
2019-05-01T04:23:53.280Z,83.30
2019-05-01T04:26:22.489Z,83.40
2019-05-01T04:29:28.855Z,83.20
2019-05-01T04:32:04.618Z,83.00
2019-05-01T04:34:39.878Z,83.10
2019-05-01T04:37:10.777Z,82.90
2019-05-01T04:39:40.063Z,83.00
2019-05-01T04:42:09.421Z,82.40
2019-05-01T04:44:38.632Z,82.40
2019-05-01T04:47:07.919Z,82.10
2019-05-01T04:49:37.196Z,82.30
2019-05-01T04:52:06.387Z,82.40
2019-05-01T04:54:35.614Z,82.50
2019-05-01T04:57:04.821Z,82.10
2019-05-01T04:59:34.069Z,81.90
2019-05-01T05:02:04.921Z,81.90
2019-05-01T05:04:34.177Z,81.60
2019-05-01T05:07:03.389Z,81.90
2019-05-01T05:10:00.713Z,81.50
2019-05-01T05:12:51.764Z,81.50
2019-05-01T05:15:42.845Z,81.50
2019-05-01T05:18:12.150Z,81.20
2019-05-01T05:20:41.367Z,80.60
2019-05-01T05:23:10.602Z,80.80
2019-05-01T05:25:39.800Z,80.40
2019-05-01T05:28:09.084Z,80.40
2019-05-01T05:30:38.314Z,80.40
2019-05-01T05:33:17.852Z,81.00
2019-05-01T05:35:38.845Z,81.20
2019-05-01T05:38:17.675Z,81.00
2019-05-01T05:40:46.896Z,81.30
2019-05-01T05:43:16.135Z,81.20
2019-05-01T05:45:45.370Z,80.90
2019-05-01T05:48:14.568Z,80.80
2019-05-01T05:50:55.120Z,81.00
2019-05-01T05:53:25.613Z,80.70
2019-05-01T05:55:55.613Z,80.80
2019-05-01T05:58:29.009Z,80.90
2019-05-01T06:01:10.025Z,81.10
2019-05-01T06:04:10.274Z,81.20
2019-05-01T06:06:51.785Z,81.20
2019-05-01T06:09:25.620Z,81.40
2019-05-01T06:12:17.839Z,81.80
2019-05-01T06:14:54.822Z,80.90
2019-05-01T06:17:59.032Z,81.80
2019-05-01T06:20:48.228Z,82.00
2019-05-01T06:23:38.364Z,82.20
2019-05-01T06:26:25.514Z,82.00
2019-05-01T06:28:55.903Z,81.90
2019-05-01T06:31:25.877Z,81.30
2019-05-01T06:33:55.219Z,80.90
2019-05-01T06:36:24.500Z,81.20
2019-05-01T06:38:54.007Z,81.60
2019-05-01T06:41:23.225Z,81.60
2019-05-01T06:44:09.455Z,81.80
2019-05-01T06:46:58.227Z,81.60
2019-05-01T06:49:44.505Z,81.70
2019-05-01T06:52:16.348Z,80.90
2019-05-01T06:54:47.687Z,81.30
2019-05-01T06:57:16.478Z,81.20
2019-05-01T06:59:45.711Z,80.60
2019-05-01T07:02:16.122Z,81.40
2019-05-01T07:04:45.866Z,80.20
2019-05-01T07:07:25.142Z,80.40
2019-05-01T07:09:49.435Z,80.70
2019-05-01T07:12:23.908Z,80.90
2019-05-01T07:14:52.197Z,81.10
2019-05-01T07:17:21.845Z,80.60
2019-05-01T07:19:58.469Z,80.70
2019-05-01T07:22:27.780Z,81.20
2019-05-01T07:24:59.006Z,81.30
2019-05-01T07:27:27.944Z,80.60
2019-05-01T07:30:00.708Z,80.40
2019-05-01T07:32:29.965Z,80.70
2019-05-01T07:35:01.913Z,79.80
2019-05-01T07:37:30.079Z,80.30
2019-05-01T07:39:59.285Z,80.30
2019-05-01T07:42:34.126Z,80.30
2019-05-01T07:45:26.672Z,80.20
2019-05-01T07:47:56.157Z,79.60
2019-05-01T07:50:31.498Z,79.90
2019-05-01T07:52:59.929Z,80.20
2019-05-01T07:55:41.075Z,79.60
2019-05-01T07:58:15.664Z,79.20
2019-05-01T08:01:02.108Z,79.50
2019-05-01T08:03:31.330Z,78.60
2019-05-01T08:06:00.525Z,78.40
2019-05-01T08:08:29.758Z,78.20
2019-05-01T08:10:59.832Z,78.20
2019-05-01T08:13:30.662Z,78.80
2019-05-01T08:16:02.148Z,78.50
2019-05-01T08:18:38.042Z,78.80
2019-05-01T08:21:41.919Z,79.20
2019-05-01T08:24:11.128Z,78.00
2019-05-01T08:26:44.158Z,78.20
2019-05-01T08:29:30.391Z,78.40
2019-05-01T08:32:39.258Z,77.40
2019-05-01T08:35:08.283Z,77.30
2019-05-01T08:37:37.484Z,76.10
2019-05-01T08:40:07.260Z,76.10
2019-05-01T08:42:37.641Z,77.10
2019-05-01T08:45:25.289Z,76.80
2019-05-01T08:48:16.348Z,76.20
2019-05-01T08:50:45.660Z,75.00
2019-05-01T08:53:18.032Z,75.70
2019-05-01T08:55:47.087Z,76.20
2019-05-01T08:58:16.494Z,75.70
2019-05-01T09:00:45.784Z,75.40
2019-05-01T09:03:18.767Z,75.10
2019-05-01T09:05:45.982Z,74.20
2019-05-01T09:08:15.180Z,75.50
2019-05-01T09:10:44.418Z,74.90
2019-05-01T09:13:13.708Z,75.30
2019-05-01T09:15:43.657Z,75.20
2019-05-01T09:18:13.908Z,75.40
2019-05-01T09:20:44.800Z,75.80
2019-05-01T09:23:14.611Z,74.20
2019-05-01T09:25:53.198Z,74.50
2019-05-01T09:28:29.969Z,75.10
2019-05-01T09:31:03.179Z,74.10
2019-05-01T09:33:32.281Z,74.50
2019-05-01T09:36:01.494Z,73.80
2019-05-01T09:38:30.730Z,73.60
2019-05-01T09:40:59.950Z,74.10
2019-05-01T09:43:30.907Z,73.80
2019-05-01T09:46:01.247Z,74.10
2019-05-01T09:48:33.645Z,73.80
2019-05-01T09:51:10.148Z,73.40
2019-05-01T09:53:48.929Z,72.50
2019-05-01T09:56:21.433Z,73.20
2019-05-01T09:58:50.645Z,72.80
2019-05-01T10:01:24.591Z,72.00
2019-05-01T10:03:54.517Z,71.90
2019-05-01T10:06:21.777Z,72.70
2019-05-01T10:08:51.004Z,72.50
2019-05-01T10:11:20.235Z,72.60
2019-05-01T10:13:49.428Z,72.30
2019-05-01T10:16:18.661Z,71.80
2019-05-01T10:18:47.877Z,72.10
2019-05-01T10:21:17.117Z,71.90
2019-05-01T10:23:47.053Z,72.30
2019-05-01T10:26:23.505Z,72.10
2019-05-01T10:29:21.410Z,72.60
2019-05-01T10:32:02.373Z,72.50
2019-05-01T10:34:43.011Z,71.60
2019-05-01T10:37:11.434Z,71.50
2019-05-01T10:39:40.664Z,70.20
2019-05-01T10:42:10.066Z,71.40
2019-05-01T10:44:39.285Z,71.30
2019-05-01T10:47:08.576Z,70.90
2019-05-01T10:49:37.791Z,71.20
2019-05-01T10:52:13.885Z,71.30
2019-05-01T10:54:37.936Z,70.30
2019-05-01T10:57:07.164Z,70.00
2019-05-01T10:59:36.397Z,69.80
2019-05-01T11:02:07.085Z,69.80
2019-05-01T11:04:36.328Z,69.80
2019-05-01T11:07:05.564Z,70.50
2019-05-01T11:09:34.798Z,71.50
2019-05-01T11:12:08.368Z,71.90
2019-05-01T11:14:37.597Z,71.60
2019-05-01T11:17:06.992Z,71.00
2019-05-01T11:19:36.293Z,70.10
2019-05-01T11:22:05.503Z,69.80
2019-05-01T11:24:35.020Z,69.50
2019-05-01T11:27:04.273Z,69.30
2019-05-01T11:29:35.428Z,69.00
2019-05-01T11:32:15.920Z,69.40
2019-05-01T11:34:52.493Z,69.40
2019-05-01T11:37:34.874Z,69.40
2019-05-01T11:40:08.979Z,70.30
2019-05-01T11:42:38.215Z,71.10
2019-05-01T11:45:08.542Z,70.70
2019-05-01T11:47:37.735Z,70.90
2019-05-01T11:50:06.975Z,71.30
2019-05-01T11:52:36.318Z,71.00
2019-05-01T11:55:05.621Z,70.40
2019-05-01T11:57:34.933Z,70.10
2019-05-01T12:00:05.099Z,69.90
2019-05-01T12:02:34.298Z,70.40
2019-05-01T12:05:03.606Z,69.60
2019-05-01T12:07:32.805Z,69.80
2019-05-01T12:10:02.024Z,70.30
2019-05-01T12:12:32.868Z,71.00
2019-05-01T12:15:02.294Z,71.70
2019-05-01T12:17:40.368Z,71.50
2019-05-01T12:20:10.032Z,71.00
2019-05-01T12:22:39.249Z,70.90
2019-05-01T12:25:08.471Z,70.80
2019-05-01T12:27:37.683Z,70.50
2019-05-01T12:30:07.086Z,70.50
2019-05-01T12:32:36.297Z,70.90
2019-05-01T12:35:05.692Z,72.20
2019-05-01T12:37:40.915Z,72.50
2019-05-01T12:40:11.469Z,72.40
2019-05-01T12:42:40.684Z,72.40
2019-05-01T12:45:10.116Z,73.90
2019-05-01T12:47:44.045Z,72.90
2019-05-01T12:50:14.597Z,72.50
2019-05-01T12:53:10.248Z,72.40
2019-05-01T12:56:01.255Z,73.60
2019-05-01T12:58:30.461Z,73.90
2019-05-01T13:00:59.696Z,73.80
2019-05-01T13:03:28.920Z,73.90
2019-05-01T13:05:58.207Z,73.90
2019-05-01T13:08:27.481Z,74.00
2019-05-01T13:10:59.685Z,73.30
2019-05-01T13:13:28.989Z,73.00
2019-05-01T13:15:58.433Z,73.20
2019-05-01T13:18:27.654Z,72.40
2019-05-01T13:20:58.630Z,72.90
2019-05-01T13:23:29.060Z,72.80
2019-05-01T13:26:23.138Z,72.80
2019-05-01T13:29:14.247Z,73.20
2019-05-01T13:31:52.049Z,73.20
2019-05-01T13:34:21.298Z,73.30
2019-05-01T13:37:02.412Z,72.40
2019-05-01T13:39:21.549Z,72.10
2019-05-01T13:41:50.818Z,72.80
2019-05-01T13:44:20.035Z,72.60
2019-05-01T13:46:49.352Z,73.60
2019-05-01T13:49:18.570Z,73.80
2019-05-01T13:51:47.796Z,72.40
2019-05-01T13:54:16.981Z,73.70
2019-05-01T13:56:46.180Z,72.90
2019-05-01T13:59:16.764Z,72.20
2019-05-01T14:01:45.982Z,72.20
2019-05-01T14:04:15.888Z,72.20
2019-05-01T14:06:45.087Z,72.00
2019-05-01T14:09:22.508Z,71.70
2019-05-01T14:11:51.749Z,72.50
2019-05-01T14:14:20.998Z,71.80
2019-05-01T14:16:57.478Z,72.10
2019-05-01T14:19:26.949Z,72.80
2019-05-01T14:22:26.212Z,72.30
2019-05-01T14:24:57.565Z,72.20
2019-05-01T14:27:28.295Z,71.80
2019-05-01T14:29:57.697Z,72.20
2019-05-01T14:32:27.282Z,71.80
2019-05-01T14:34:56.549Z,71.10
2019-05-01T14:37:29.709Z,70.60
2019-05-01T14:39:56.740Z,70.60
2019-05-01T14:42:25.940Z,70.00
2019-05-01T14:44:55.121Z,70.60
2019-05-01T14:47:24.349Z,70.10
2019-05-01T14:49:53.571Z,70.80
2019-05-01T14:52:23.172Z,69.90
2019-05-01T14:54:52.414Z,70.00
2019-05-01T14:57:24.721Z,70.00
2019-05-01T14:59:53.914Z,69.50
2019-05-01T15:02:24.562Z,69.30
2019-05-01T15:04:53.795Z,69.00
2019-05-01T15:07:22.982Z,68.30
2019-05-01T15:09:52.160Z,68.40
2019-05-01T15:12:21.405Z,69.20
2019-05-01T15:15:00.505Z,68.60
2019-05-01T15:17:44.826Z,69.20
2019-05-01T15:20:14.034Z,69.50
2019-05-01T15:22:43.246Z,69.30
2019-05-01T15:25:12.487Z,69.40
2019-05-01T15:27:41.718Z,69.60
2019-05-01T15:30:11.459Z,70.60
2019-05-01T15:32:41.139Z,71.70
2019-05-01T15:35:10.401Z,72.00
2019-05-01T15:37:39.600Z,72.00
2019-05-01T15:40:27.989Z,71.60
2019-05-01T15:43:19.172Z,71.20
2019-05-01T15:45:49.566Z,71.10
2019-05-01T15:48:18.779Z,70.60
2019-05-01T15:50:50.028Z,70.30
2019-05-01T15:53:19.266Z,70.40
2019-05-01T15:55:48.574Z,70.10
2019-05-01T15:58:20.016Z,70.00
2019-05-01T16:00:49.216Z,70.40
2019-05-01T16:03:18.496Z,69.60
2019-05-01T16:05:49.128Z,70.10
2019-05-01T16:08:18.335Z,69.90
2019-05-01T16:10:57.872Z,70.00
2019-05-01T16:13:27.070Z,69.50
2019-05-01T16:15:56.312Z,69.60
2019-05-01T16:18:25.501Z,70.80
2019-05-01T16:21:07.813Z,70.70
2019-05-01T16:23:37.015Z,70.60
2019-05-01T16:26:06.197Z,69.80
2019-05-01T16:28:35.404Z,69.60
2019-05-01T16:31:06.787Z,69.90
2019-05-01T16:33:36.072Z,70.70
2019-05-01T16:36:05.248Z,71.10
2019-05-01T16:38:55.848Z,71.00
2019-05-01T16:41:25.570Z,70.80
2019-05-01T16:43:54.772Z,70.00
2019-05-01T16:46:23.979Z,69.80
2019-05-01T16:48:53.195Z,69.80
2019-05-01T16:51:22.409Z,69.80
2019-05-01T16:53:51.584Z,69.70
2019-05-01T16:56:20.789Z,70.10
2019-05-01T16:58:49.979Z,69.20
2019-05-01T17:01:30.536Z,69.00
2019-05-01T17:04:08.029Z,69.30
2019-05-01T17:06:48.463Z,69.50
2019-05-01T17:09:35.550Z,70.10
2019-05-01T17:12:04.779Z,70.60
2019-05-01T17:14:33.971Z,71.80
2019-05-01T17:17:04.815Z,72.30
2019-05-01T17:19:34.082Z,72.20
2019-05-01T17:22:03.301Z,72.10
2019-05-01T17:24:32.483Z,71.90
2019-05-01T17:27:07.911Z,72.20
2019-05-01T17:29:37.416Z,72.10
2019-05-01T17:32:08.712Z,72.10
2019-05-01T17:34:37.921Z,72.10
2019-05-01T17:37:07.135Z,72.10
2019-05-01T17:39:36.324Z,73.00
2019-05-01T17:42:05.782Z,73.10
2019-05-01T17:44:34.966Z,72.50
2019-05-01T17:47:04.470Z,73.00
2019-05-01T17:49:33.649Z,73.90
2019-05-01T17:52:02.881Z,74.60
2019-05-01T17:54:32.068Z,74.30
2019-05-01T17:57:01.263Z,74.20
2019-05-01T17:59:30.528Z,75.40
2019-05-01T18:02:17.379Z,74.60
2019-05-01T18:05:14.814Z,75.00
2019-05-01T18:07:44.131Z,75.90
2019-05-01T18:10:13.328Z,75.50
2019-05-01T18:12:42.539Z,75.40
2019-05-01T18:15:11.785Z,75.50
2019-05-01T18:17:40.995Z,75.20
2019-05-01T18:20:10.209Z,74.90
2019-05-01T18:22:57.240Z,75.30
2019-05-01T18:25:33.213Z,76.60
2019-05-01T18:28:24.967Z,76.30
2019-05-01T18:30:56.622Z,76.40
2019-05-01T18:33:25.983Z,76.40
2019-05-01T18:35:54.511Z,76.20
2019-05-01T18:38:29.950Z,76.70
2019-05-01T18:41:18.264Z,76.80
2019-05-01T18:43:47.535Z,76.80
2019-05-01T18:46:16.957Z,76.90
2019-05-01T18:48:46.334Z,77.30
2019-05-01T18:51:16.426Z,76.90
2019-05-01T18:53:45.813Z,77.00
2019-05-01T18:56:16.691Z,76.90
2019-05-01T18:58:46.070Z,77.10
2019-05-01T19:01:15.291Z,77.40
2019-05-01T19:03:44.497Z,77.30
2019-05-01T19:06:13.713Z,78.00
2019-05-01T19:08:42.924Z,77.60
2019-05-01T19:11:13.304Z,78.90
2019-05-01T19:13:42.787Z,78.40
2019-05-01T19:16:12.009Z,78.70
2019-05-01T19:18:41.319Z,78.70
2019-05-01T19:21:11.189Z,79.10
2019-05-01T19:23:40.437Z,79.20
2019-05-01T19:26:10.631Z,79.10
2019-05-01T19:28:39.846Z,78.90
2019-05-01T19:31:09.319Z,79.10
2019-05-01T19:33:41.674Z,79.20
2019-05-01T19:36:10.377Z,79.20
2019-05-01T19:38:39.657Z,79.40
2019-05-01T19:41:13.926Z,79.50
2019-05-01T19:43:40.340Z,79.70
2019-05-01T19:46:10.771Z,79.40
2019-05-01T19:48:45.263Z,79.70
2019-05-01T19:51:11.960Z,79.60
2019-05-01T19:53:46.569Z,79.90
2019-05-01T19:56:16.595Z,80.10
2019-05-01T19:58:44.337Z,80.10
2019-05-01T20:01:13.574Z,80.60
2019-05-01T20:03:42.891Z,80.80
2019-05-01T20:06:13.379Z,81.00
2019-05-01T20:08:42.620Z,81.00
2019-05-01T20:11:11.872Z,80.90
2019-05-01T20:13:41.089Z,81.00
2019-05-01T20:16:10.900Z,81.20
2019-05-01T20:18:40.172Z,81.20
2019-05-01T20:21:09.405Z,81.40
2019-05-01T20:23:38.597Z,81.20
2019-05-01T20:26:07.808Z,82.00
2019-05-01T20:28:37.461Z,82.00
2019-05-01T20:31:06.847Z,82.00
2019-05-01T20:33:39.122Z,82.00
2019-05-01T20:36:07.298Z,81.90
2019-05-01T20:38:36.485Z,82.10
2019-05-01T20:41:10.350Z,82.10
2019-05-01T20:43:38.115Z,82.10
2019-05-01T20:46:21.459Z,82.20
2019-05-01T20:48:49.612Z,82.30
2019-05-01T20:51:20.289Z,82.30
2019-05-01T20:53:49.743Z,82.30
2019-05-01T20:56:25.454Z,82.70
2019-05-01T20:58:57.751Z,82.80
2019-05-01T21:01:28.222Z,82.90
2019-05-01T21:04:18.678Z,83.00
2019-05-01T21:07:06.973Z,83.10
2019-05-01T21:09:47.273Z,83.10
2019-05-01T21:12:09.225Z,83.60
2019-05-01T21:14:51.042Z,83.40
2019-05-01T21:17:24.370Z,84.10
2019-05-01T21:20:01.184Z,84.50
2019-05-01T21:22:35.174Z,84.40
2019-05-01T21:25:04.691Z,84.20
2019-05-01T21:27:55.183Z,84.50
2019-05-01T21:30:33.903Z,84.10
2019-05-01T21:33:11.511Z,84.20
2019-05-01T21:35:40.199Z,84.30
2019-05-01T21:38:15.416Z,84.60
2019-05-01T21:40:51.084Z,84.70
2019-05-01T21:43:33.211Z,85.20
2019-05-01T21:46:08.181Z,85.20
2019-05-01T21:48:39.752Z,85.60
2019-05-01T21:51:13.908Z,85.80
2019-05-01T21:53:53.006Z,86.00
2019-05-01T21:56:22.357Z,85.50
2019-05-01T21:58:55.029Z,85.80
2019-05-01T22:01:30.335Z,85.90
2019-05-01T22:04:06.183Z,86.00
2019-05-01T22:06:35.382Z,86.00
2019-05-01T22:09:26.452Z,86.40
2019-05-01T22:12:08.114Z,86.50
2019-05-01T22:14:49.728Z,86.80
2019-05-01T22:17:27.422Z,86.90
2019-05-01T22:19:57.511Z,86.90
2019-05-01T22:22:38.614Z,87.50
2019-05-01T22:25:15.908Z,87.10
2019-05-01T22:28:27.007Z,87.30
2019-05-01T22:31:16.712Z,87.50
2019-05-01T22:33:48.043Z,87.40
2019-05-01T22:36:17.316Z,87.40
2019-05-01T22:38:46.742Z,87.80
2019-05-01T22:41:15.993Z,87.50
2019-05-01T22:43:45.159Z,87.70
2019-05-01T22:46:20.572Z,87.80
2019-05-01T22:48:49.759Z,87.90
2019-05-01T22:51:34.444Z,88.10
2019-05-01T22:54:10.232Z,88.50
2019-05-01T22:56:39.421Z,88.10
2019-05-01T22:59:14.409Z,88.00
2019-05-01T23:01:49.161Z,88.10
2019-05-01T23:04:28.981Z,88.30
2019-05-01T23:06:58.157Z,88.10
2019-05-01T23:09:30.377Z,88.40
2019-05-01T23:12:04.237Z,88.40
2019-05-01T23:14:34.733Z,88.10
2019-05-01T23:17:45.311Z,88.00
2019-05-01T23:19:54.366Z,88.00
2019-05-01T23:22:26.507Z,88.00
2019-05-01T23:25:01.248Z,88.10
2019-05-01T23:27:30.790Z,88.90
2019-05-01T23:30:00.035Z,88.10
2019-05-01T23:32:29.270Z,88.40
2019-05-01T23:35:07.565Z,88.30
2019-05-01T23:37:33.786Z,88.30
2019-05-01T23:40:02.956Z,88.40
2019-05-01T23:42:43.846Z,88.60
2019-05-01T23:45:18.739Z,88.60
2019-05-01T23:47:50.730Z,88.60
2019-05-01T23:50:23.051Z,88.50
2019-05-01T23:53:15.632Z,88.80
2019-05-01T23:55:46.123Z,88.70
2019-05-01T23:58:24.175Z,88.60
